createdAt,value
2022-10-03T00:02:18.396Z,14.27
2022-10-03T00:05:03.589Z,10.32
2022-10-03T00:08:09.022Z,10.50
2022-10-03T00:10:38.715Z,14.02
2022-10-03T00:13:51.866Z,12.95
2022-10-03T00:16:41.471Z,11.63
2022-10-03T00:19:42.970Z,14.52
2022-10-03T00:22:21.210Z,10.43
2022-10-03T00:25:29.548Z,17.13
2022-10-03T00:28:13.607Z,10.93
2022-10-03T00:31:01.329Z,27.58
2022-10-03T00:33:51.100Z,12.65
2022-10-03T00:36:55.504Z,15.20
2022-10-03T00:39:27.809Z,11.35
2022-10-03T00:42:06.613Z,12.13
2022-10-03T00:44:43.652Z,9.80
2022-10-03T00:47:22.218Z,11.18
2022-10-03T00:50:01.151Z,21.88
2022-10-03T00:52:40.026Z,10.07
2022-10-03T00:55:27.971Z,15.50
2022-10-03T00:58:16.470Z,7.90
2022-10-03T01:00:50.882Z,12.10
2022-10-03T01:03:28.446Z,14.55
2022-10-03T01:06:46.530Z,7.47
2022-10-03T01:09:27.417Z,9.38
2022-10-03T01:12:21.755Z,8.52
2022-10-03T01:14:57.284Z,11.57
2022-10-03T01:17:56.200Z,9.98
2022-10-03T01:20:47.418Z,12.48
2022-10-03T01:23:13.870Z,11.48
2022-10-03T01:26:37.155Z,6.95
2022-10-03T01:29:28.487Z,7.90
2022-10-03T01:32:05.391Z,12.82
2022-10-03T01:34:38.238Z,14.18
2022-10-03T01:37:22.625Z,9.48
2022-10-03T01:40:26.342Z,10.13
2022-10-03T01:43:14.801Z,7.85
2022-10-03T01:46:09.082Z,8.55
2022-10-03T01:49:00.427Z,8.23
2022-10-03T01:51:27.579Z,11.90
2022-10-03T01:54:20.064Z,10.05
2022-10-03T01:57:12.365Z,9.48
2022-10-03T01:59:45.613Z,7.10
2022-10-03T02:02:49.069Z,5.85
2022-10-03T02:05:25.837Z,12.88
2022-10-03T02:08:01.049Z,14.40
2022-10-03T02:11:02.735Z,10.73
2022-10-03T02:13:44.134Z,8.77
2022-10-03T02:16:15.913Z,14.10
2022-10-03T02:18:55.568Z,7.63
2022-10-03T02:21:27.033Z,13.77
2022-10-03T02:24:18.929Z,9.43
2022-10-03T02:26:48.107Z,16.23
2022-10-03T02:29:39.369Z,10.93
2022-10-03T02:32:24.222Z,11.77
2022-10-03T02:35:15.000Z,11.50
2022-10-03T02:37:48.458Z,12.55
2022-10-03T02:40:29.241Z,11.98
2022-10-03T02:43:52.854Z,10.40
2022-10-03T02:47:17.855Z,11.90
2022-10-03T02:50:02.879Z,11.60
2022-10-03T02:53:07.687Z,9.73
2022-10-03T02:56:11.814Z,14.02
2022-10-03T02:59:15.487Z,15.63
2022-10-03T03:01:52.423Z,11.45
2022-10-03T03:04:56.728Z,11.18
2022-10-03T03:07:38.383Z,10.85
2022-10-03T03:10:20.169Z,14.80
2022-10-03T03:13:08.199Z,17.13
2022-10-03T03:15:59.924Z,12.73
2022-10-03T03:18:34.539Z,12.40
2022-10-03T03:21:23.804Z,10.23
2022-10-03T03:24:05.851Z,9.38
2022-10-03T03:26:53.285Z,12.73
2022-10-03T03:29:44.432Z,9.60
2022-10-03T03:32:52.363Z,9.95
2022-10-03T03:35:46.717Z,10.13
2022-10-03T03:38:35.085Z,17.25
2022-10-03T03:41:21.194Z,16.23
2022-10-03T03:44:25.507Z,11.48
2022-10-03T03:47:30.290Z,11.82
2022-10-03T03:50:07.952Z,11.02
2022-10-03T03:52:49.627Z,9.23
2022-10-03T03:55:34.732Z,12.38
2022-10-03T03:58:40.236Z,8.88
2022-10-03T04:01:39.183Z,10.38
2022-10-03T04:04:44.195Z,7.47
2022-10-03T04:07:32.350Z,8.45
2022-10-03T04:10:32.992Z,9.00
2022-10-03T04:13:21.149Z,8.73
2022-10-03T04:16:13.938Z,9.30
2022-10-03T04:18:58.423Z,9.40
2022-10-03T04:21:28.331Z,9.00
2022-10-03T04:24:21.978Z,13.48
2022-10-03T04:27:25.678Z,9.73
2022-10-03T04:30:23.424Z,16.17
2022-10-03T04:33:02.089Z,10.88
2022-10-03T04:36:06.341Z,9.07
2022-10-03T04:39:00.977Z,13.25
2022-10-03T04:41:46.074Z,12.68
2022-10-03T04:44:39.320Z,12.40
2022-10-03T04:47:26.273Z,10.73
2022-10-03T04:49:56.202Z,24.45
2022-10-03T04:52:39.478Z,13.68
2022-10-03T04:57:54.768Z,11.90
2022-10-03T05:00:41.597Z,11.80
2022-10-03T05:03:26.937Z,10.85
2022-10-03T05:06:18.152Z,8.82
2022-10-03T05:08:50.222Z,12.82
2022-10-03T05:11:45.489Z,6.95
2022-10-03T05:14:56.330Z,8.05
2022-10-03T05:17:37.366Z,14.35
2022-10-03T05:20:34.456Z,9.48
2022-10-03T05:23:25.036Z,12.18
2022-10-03T05:26:30.878Z,14.90
2022-10-03T05:29:03.752Z,7.07
2022-10-03T05:31:30.271Z,11.20
2022-10-03T05:34:04.327Z,11.20
2022-10-03T05:36:51.084Z,13.80
2022-10-03T05:39:23.572Z,10.60
2022-10-03T05:42:21.518Z,9.68
2022-10-03T05:45:07.078Z,8.52
2022-10-03T05:47:55.490Z,13.45
2022-10-03T05:50:43.646Z,11.60
2022-10-03T05:53:31.713Z,13.15
2022-10-03T05:56:22.883Z,16.67
2022-10-03T05:59:07.807Z,11.55
2022-10-03T06:01:46.135Z,14.13
2022-10-03T06:04:21.901Z,10.93
2022-10-03T06:06:53.325Z,8.85
2022-10-03T06:09:44.852Z,13.93
2022-10-03T06:12:25.385Z,18.90
2022-10-03T06:15:10.576Z,10.23
2022-10-03T06:18:02.025Z,10.55
2022-10-03T06:21:05.315Z,11.63
2022-10-03T06:23:31.828Z,22.73
2022-10-03T06:26:15.025Z,28.55
2022-10-03T06:29:22.248Z,13.18
2022-10-03T06:32:13.007Z,11.65
2022-10-03T06:35:17.353Z,9.30
2022-10-03T06:38:26.205Z,18.80
2022-10-03T06:41:04.344Z,9.65
2022-10-03T06:44:01.382Z,12.20
2022-10-03T06:46:46.354Z,13.65
2022-10-03T06:49:29.236Z,14.93
2022-10-03T06:52:04.962Z,12.52
2022-10-03T06:55:24.524Z,14.55
2022-10-03T06:58:28.489Z,10.35
2022-10-03T07:01:12.982Z,15.57
2022-10-03T07:04:30.685Z,13.90
2022-10-03T07:07:32.826Z,17.90
2022-10-03T07:10:29.590Z,14.68
2022-10-03T07:13:24.260Z,14.82
2022-10-03T07:16:27.480Z,15.73
2022-10-03T07:19:22.881Z,17.05
2022-10-03T07:22:01.622Z,15.40
2022-10-03T07:24:41.526Z,14.95
2022-10-03T07:27:27.732Z,12.65
2022-10-03T07:30:12.180Z,12.73
2022-10-03T07:33:06.562Z,13.40
2022-10-03T07:36:03.874Z,15.00
2022-10-03T07:38:58.233Z,13.57
2022-10-03T07:41:34.061Z,10.80
2022-10-03T07:44:06.348Z,11.63
2022-10-03T07:46:42.115Z,10.43
2022-10-03T07:49:27.384Z,10.40
2022-10-03T07:52:26.960Z,13.38
2022-10-03T07:55:43.888Z,7.80
2022-10-03T07:58:37.967Z,10.80
2022-10-03T08:01:35.702Z,8.32
2022-10-03T08:04:26.113Z,6.07
2022-10-03T08:07:14.612Z,6.75
2022-10-03T08:10:17.196Z,10.50
2022-10-03T08:13:24.773Z,11.27
2022-10-03T08:16:06.126Z,15.40
2022-10-03T08:19:00.819Z,8.05
2022-10-03T08:21:50.276Z,9.05
2022-10-03T08:24:54.254Z,10.00
2022-10-03T08:27:43.347Z,8.40
2022-10-03T08:30:15.206Z,10.98
2022-10-03T08:32:57.816Z,5.40
2022-10-03T08:35:49.126Z,8.10
2022-10-03T08:38:33.986Z,9.10
2022-10-03T08:41:18.128Z,7.65
2022-10-03T08:43:53.757Z,7.03
2022-10-03T08:46:42.230Z,9.85
2022-10-03T08:49:44.839Z,8.93
2022-10-03T08:52:23.307Z,7.03
2022-10-03T08:55:02.420Z,11.15
2022-10-03T08:58:00.277Z,8.55
2022-10-03T09:00:56.133Z,8.35
2022-10-03T09:03:42.794Z,8.70
2022-10-03T09:06:24.814Z,7.00
2022-10-03T09:09:05.880Z,10.10
2022-10-03T09:11:32.394Z,7.68
2022-10-03T09:14:05.107Z,9.65
2022-10-03T09:16:44.559Z,6.47
2022-10-03T09:19:27.190Z,11.40
2022-10-03T09:22:03.162Z,11.63
2022-10-03T09:25:03.967Z,8.27
2022-10-03T09:27:50.367Z,12.68
2022-10-03T09:30:30.992Z,8.88
2022-10-03T09:33:22.330Z,9.07
2022-10-03T09:36:04.522Z,7.82
2022-10-03T09:39:30.029Z,8.07
2022-10-03T09:42:27.503Z,6.43
2022-10-03T09:45:16.180Z,7.93
2022-10-03T09:48:04.997Z,7.00
2022-10-03T09:51:02.216Z,4.53
2022-10-03T09:53:59.750Z,8.18
2022-10-03T09:56:26.275Z,8.00
2022-10-03T09:59:12.116Z,7.68
2022-10-03T10:01:41.796Z,10.07
2022-10-03T10:04:54.315Z,12.30
2022-10-03T10:07:38.005Z,5.55
2022-10-03T10:10:42.023Z,5.55
2022-10-03T10:13:26.770Z,6.97
2022-10-03T10:16:15.296Z,5.95
2022-10-03T10:19:03.531Z,5.90
2022-10-03T10:21:30.079Z,6.60
2022-10-03T10:24:14.783Z,5.70
2022-10-03T10:27:35.666Z,8.07
2022-10-03T10:30:22.281Z,10.45
2022-10-03T10:33:03.711Z,4.50
2022-10-03T10:36:06.921Z,7.43
2022-10-03T10:39:07.120Z,5.22
2022-10-03T10:41:55.306Z,4.97
2022-10-03T10:45:06.343Z,5.22
2022-10-03T10:47:51.567Z,5.85
2022-10-03T10:50:36.709Z,5.25
2022-10-03T10:53:09.454Z,5.45
2022-10-03T10:55:54.422Z,6.13
2022-10-03T10:58:58.156Z,4.55
2022-10-03T11:03:57.534Z,4.57
2022-10-03T11:07:16.533Z,8.35
2022-10-03T11:10:02.717Z,6.28
2022-10-03T11:12:41.129Z,10.07
2022-10-03T11:15:26.530Z,6.80
2022-10-03T11:18:08.456Z,5.22
2022-10-03T11:20:44.119Z,5.78
2022-10-03T11:23:16.402Z,3.97
2022-10-03T11:26:37.122Z,5.00
2022-10-03T11:29:06.621Z,4.50
2022-10-03T11:31:59.026Z,2.97
2022-10-03T11:34:43.101Z,5.22
2022-10-03T11:37:27.531Z,5.65
2022-10-03T11:40:21.836Z,4.70
2022-10-03T11:43:00.143Z,3.58
2022-10-03T11:45:33.317Z,5.35
2022-10-03T11:48:10.002Z,4.60
2022-10-03T11:51:01.466Z,6.70
2022-10-03T11:53:47.984Z,6.50
2022-10-03T11:56:44.895Z,4.95
2022-10-03T11:59:34.234Z,4.80
2022-10-03T12:02:10.181Z,6.07
2022-10-03T12:04:45.627Z,3.30
2022-10-03T12:07:43.217Z,5.20
2022-10-03T12:10:30.210Z,5.13
2022-10-03T12:12:57.992Z,3.00
2022-10-03T12:15:51.008Z,4.07
2022-10-03T12:18:45.528Z,4.97
2022-10-03T12:21:21.086Z,8.65
2022-10-03T12:24:20.939Z,4.35
2022-10-03T12:27:05.877Z,3.72
2022-10-03T12:29:36.299Z,1.58
2022-10-03T12:32:16.002Z,2.97
2022-10-03T12:35:00.117Z,5.45
2022-10-03T12:37:38.844Z,3.42
2022-10-03T12:40:12.377Z,3.65
2022-10-03T12:42:53.403Z,3.88
2022-10-03T12:45:27.574Z,4.40
2022-10-03T12:48:16.422Z,4.93
2022-10-03T12:50:59.603Z,5.40
2022-10-03T12:53:41.721Z,5.47
2022-10-03T12:56:25.087Z,3.73
2022-10-03T12:59:04.035Z,4.75
2022-10-03T13:02:03.068Z,5.78
2022-10-03T13:05:00.815Z,4.00
2022-10-03T13:08:02.411Z,2.65
2022-10-03T13:11:17.248Z,3.40
2022-10-03T13:14:19.138Z,3.33
2022-10-03T13:17:14.745Z,4.72
2022-10-03T13:20:06.570Z,3.50
2022-10-03T13:22:57.967Z,6.28
2022-10-03T13:25:36.203Z,3.63
2022-10-03T13:28:18.828Z,2.50
2022-10-03T13:31:00.135Z,4.80
2022-10-03T13:33:32.349Z,3.53
2022-10-03T13:36:26.796Z,1.58
2022-10-03T13:38:55.144Z,4.97
2022-10-03T13:41:46.751Z,3.70
2022-10-03T13:44:36.335Z,3.78
2022-10-03T13:47:27.255Z,4.40
2022-10-03T13:49:58.815Z,3.33
2022-10-03T13:52:43.387Z,4.78
2022-10-03T13:55:13.230Z,4.95
2022-10-03T13:57:47.614Z,3.20
2022-10-03T14:00:21.176Z,2.55
2022-10-03T14:03:17.181Z,5.03
2022-10-03T14:06:11.669Z,1.67
2022-10-03T14:09:10.222Z,3.15
2022-10-03T14:11:47.793Z,3.95
2022-10-03T14:14:25.369Z,3.97
2022-10-03T14:17:00.801Z,2.50
2022-10-03T14:19:53.389Z,3.08
2022-10-03T14:22:36.119Z,4.93
2022-10-03T14:25:27.760Z,5.25
2022-10-03T14:28:08.134Z,3.22
2022-10-03T14:31:07.284Z,2.60
2022-10-03T14:34:15.941Z,2.40
2022-10-03T14:37:03.980Z,4.47
2022-10-03T14:40:13.585Z,5.78
2022-10-03T14:42:58.988Z,3.10
2022-10-03T14:45:39.050Z,3.60
2022-10-03T14:48:17.795Z,3.60
2022-10-03T14:50:48.887Z,6.45
2022-10-03T14:53:25.126Z,4.65
2022-10-03T14:55:51.600Z,4.30
2022-10-03T14:58:21.821Z,4.90
2022-10-03T15:01:28.798Z,4.78
2022-10-03T15:04:04.347Z,4.55
2022-10-03T15:06:33.000Z,3.97
2022-10-03T15:09:02.619Z,3.30
2022-10-03T15:11:47.791Z,6.70
2022-10-03T15:14:14.777Z,4.22
2022-10-03T15:16:48.835Z,2.42
2022-10-03T15:19:20.194Z,3.80
2022-10-03T15:21:50.940Z,5.15
2022-10-03T15:24:25.142Z,3.17
2022-10-03T15:26:59.987Z,3.65
2022-10-03T15:29:28.272Z,3.35
2022-10-03T15:31:58.064Z,3.70
2022-10-03T15:34:32.258Z,3.70
2022-10-03T15:37:10.901Z,4.63
2022-10-03T15:39:44.011Z,3.13
2022-10-03T15:42:10.497Z,2.75
2022-10-03T15:44:40.054Z,5.80
2022-10-03T15:47:13.777Z,4.20
2022-10-03T15:49:50.257Z,3.15
2022-10-03T15:52:19.849Z,3.30
2022-10-03T15:54:54.705Z,3.90
2022-10-03T16:00:03.317Z,2.17
2022-10-03T16:02:30.313Z,3.38
2022-10-03T16:04:58.141Z,6.00
2022-10-03T16:07:36.988Z,2.78
2022-10-03T16:10:21.012Z,5.32
2022-10-03T16:13:03.580Z,4.32
2022-10-03T16:15:49.589Z,3.05
2022-10-03T16:18:19.207Z,5.68
2022-10-03T16:21:06.124Z,3.15
2022-10-03T16:23:37.950Z,4.43
2022-10-03T16:26:08.335Z,3.35
2022-10-03T16:28:44.375Z,2.85
2022-10-03T16:31:32.856Z,3.15
2022-10-03T16:34:03.930Z,2.60
2022-10-03T16:36:40.322Z,1.52
2022-10-03T16:39:23.855Z,4.03
2022-10-03T16:41:55.943Z,2.65
2022-10-03T16:44:34.309Z,3.43
2022-10-03T16:47:03.569Z,2.40
2022-10-03T16:49:48.789Z,5.30
2022-10-03T16:52:38.228Z,3.67
2022-10-03T16:55:12.940Z,3.60
2022-10-03T16:57:46.195Z,7.45
2022-10-03T17:00:25.552Z,3.80
2022-10-03T17:02:54.199Z,4.28
2022-10-03T17:05:21.245Z,6.55
2022-10-03T17:08:23.628Z,6.30
2022-10-03T17:10:55.916Z,4.50
2022-10-03T17:13:28.591Z,3.90
2022-10-03T17:16:09.147Z,4.95
2022-10-03T17:18:44.663Z,7.32
2022-10-03T17:21:31.267Z,5.57
2022-10-03T17:24:03.682Z,2.90
2022-10-03T17:26:36.030Z,4.57
2022-10-03T17:29:18.145Z,4.03
2022-10-03T17:31:47.841Z,3.75
2022-10-03T17:34:22.633Z,5.78
2022-10-03T17:37:13.572Z,5.10
2022-10-03T17:39:50.481Z,4.85
2022-10-03T17:42:37.964Z,5.50
2022-10-03T17:45:30.686Z,4.93
2022-10-03T17:48:06.883Z,7.50
2022-10-03T17:50:51.517Z,6.32
2022-10-03T17:53:38.518Z,3.83
2022-10-03T17:56:20.510Z,4.97
2022-10-03T17:59:03.094Z,9.50
2022-10-03T18:01:36.794Z,4.18
2022-10-03T18:04:10.770Z,5.95
2022-10-03T18:07:13.637Z,5.57
2022-10-03T18:09:47.617Z,6.47
2022-10-03T18:12:32.180Z,3.95
2022-10-03T18:15:16.372Z,3.90
2022-10-03T18:18:09.138Z,10.05
2022-10-03T18:20:58.531Z,3.83
2022-10-03T18:24:00.324Z,3.17
2022-10-03T18:26:40.519Z,3.95
2022-10-03T18:29:19.101Z,5.82
2022-10-03T18:31:55.563Z,6.78
2022-10-03T18:34:46.041Z,6.00
2022-10-03T18:37:30.856Z,7.07
2022-10-03T18:39:59.409Z,8.75
2022-10-03T18:42:28.364Z,6.35
2022-10-03T18:44:57.440Z,3.63
2022-10-03T18:47:44.019Z,5.68
2022-10-03T18:50:26.638Z,7.00
2022-10-03T18:52:59.347Z,6.85
2022-10-03T18:55:37.782Z,5.35
2022-10-03T18:58:19.154Z,7.38
2022-10-03T19:00:55.906Z,5.97
2022-10-03T19:03:34.291Z,4.85
2022-10-03T19:06:08.196Z,3.90
2022-10-03T19:08:42.313Z,11.18
2022-10-03T19:11:17.791Z,6.72
2022-10-03T19:13:56.332Z,4.75
2022-10-03T19:16:35.101Z,6.72
2022-10-03T19:19:33.981Z,8.23
2022-10-03T19:22:06.536Z,5.30
2022-10-03T19:24:57.199Z,5.50
2022-10-03T19:27:38.336Z,6.88
2022-10-03T19:30:06.765Z,4.30
2022-10-03T19:32:53.595Z,5.13
2022-10-03T19:35:23.297Z,4.95
2022-10-03T19:37:51.950Z,7.53
2022-10-03T19:40:30.743Z,4.65
2022-10-03T19:43:17.507Z,4.25
2022-10-03T19:46:02.308Z,6.78
2022-10-03T19:48:32.288Z,6.43
2022-10-03T19:51:09.877Z,5.15
2022-10-03T19:53:42.585Z,4.45
2022-10-03T19:56:15.689Z,8.77
2022-10-03T19:58:46.096Z,8.32
2022-10-03T20:01:13.376Z,6.88
2022-10-03T20:03:52.212Z,6.32
2022-10-03T20:06:23.769Z,5.82
2022-10-03T20:09:07.551Z,6.68
2022-10-03T20:11:47.799Z,6.85
2022-10-03T20:14:19.770Z,3.85
2022-10-03T20:16:48.977Z,6.43
2022-10-03T20:19:22.295Z,6.10
2022-10-03T20:21:57.542Z,5.97
2022-10-03T20:24:33.955Z,6.78
2022-10-03T20:27:12.483Z,5.88
2022-10-03T20:30:17.516Z,3.47
2022-10-03T20:32:46.351Z,11.40
2022-10-03T20:35:42.163Z,7.35
2022-10-03T20:38:27.102Z,6.03
2022-10-03T20:41:01.285Z,6.03
2022-10-03T20:43:41.617Z,6.75
2022-10-03T20:46:15.891Z,6.45
2022-10-03T20:49:15.810Z,6.45
2022-10-03T20:51:56.429Z,4.88
2022-10-03T20:54:48.852Z,4.93
2022-10-03T20:57:20.043Z,6.32
2022-10-03T20:59:49.813Z,4.40
2022-10-03T21:02:36.978Z,7.22
2022-10-03T21:05:18.129Z,9.60
2022-10-03T21:07:52.266Z,5.13
2022-10-03T21:10:24.813Z,6.63
2022-10-03T21:13:01.711Z,8.23
2022-10-03T21:15:51.101Z,6.50
2022-10-03T21:18:22.778Z,8.15
2022-10-03T21:21:03.471Z,6.07
2022-10-03T21:23:35.289Z,9.18
2022-10-03T21:26:02.502Z,9.45
2022-10-03T21:28:34.627Z,6.25
2022-10-03T21:31:23.855Z,5.83
2022-10-03T21:34:15.856Z,5.72
2022-10-03T21:36:57.894Z,7.35
2022-10-03T21:39:37.585Z,10.57
2022-10-03T21:42:28.439Z,8.43
2022-10-03T21:45:13.837Z,7.80
2022-10-03T21:47:52.965Z,8.02
2022-10-03T21:50:23.992Z,11.02
2022-10-03T21:52:55.820Z,7.63
2022-10-03T21:55:53.369Z,4.53
2022-10-03T21:58:49.895Z,8.38
2022-10-03T22:01:29.539Z,10.30
2022-10-03T22:04:15.696Z,4.65
2022-10-03T22:07:02.744Z,7.78
2022-10-03T22:09:29.453Z,8.13
2022-10-03T22:12:01.344Z,8.02
2022-10-03T22:15:03.407Z,6.40
2022-10-03T22:17:35.273Z,8.05
2022-10-03T22:20:29.917Z,6.40
2022-10-03T22:23:02.733Z,8.30
2022-10-03T22:25:39.149Z,8.88
2022-10-03T22:28:33.821Z,8.48
2022-10-03T22:31:25.227Z,8.15
2022-10-03T22:34:22.901Z,7.35
2022-10-03T22:36:50.314Z,6.80
2022-10-03T22:39:18.842Z,6.75
2022-10-03T22:41:50.490Z,7.22
2022-10-03T22:44:19.927Z,5.97
2022-10-03T22:46:52.052Z,8.13
2022-10-03T22:49:28.799Z,8.27
2022-10-03T22:51:57.798Z,7.38
2022-10-03T22:54:33.573Z,8.45
2022-10-03T22:57:06.319Z,6.20
2022-10-03T22:59:38.559Z,6.97
2022-10-03T23:02:08.375Z,7.72
2022-10-03T23:04:39.738Z,6.32
2022-10-03T23:07:32.435Z,6.18
2022-10-03T23:10:10.916Z,4.13
2022-10-03T23:12:44.300Z,4.45
2022-10-03T23:15:16.665Z,5.53
2022-10-03T23:18:01.503Z,6.35
2022-10-03T23:20:34.096Z,7.20
2022-10-03T23:23:11.900Z,7.05
2022-10-03T23:26:23.984Z,8.38
2022-10-03T23:29:11.065Z,8.25
2022-10-03T23:31:50.004Z,10.25
2022-10-03T23:34:37.801Z,8.48
2022-10-03T23:37:23.665Z,8.15
2022-10-03T23:39:56.196Z,10.63
2022-10-03T23:42:31.659Z,6.93
2022-10-03T23:45:12.166Z,12.45
2022-10-03T23:47:47.112Z,5.60
2022-10-03T23:50:24.899Z,6.30
2022-10-03T23:52:58.349Z,9.77
2022-10-03T23:55:28.985Z,8.32
2022-10-03T23:57:56.234Z,4.38
